Погода Одессана неделю

Одесская область, Украина

23 - 29 мая
  • 23мая
    Сегодня
    +16°
    +24°
    Ясно и безоблачно
    ВремяПогодаТемператураВлажностьДавлениеВетер, м/сВероятность осадков
    00:00Ясно и безоблачно+17°C73 %757 мм3.0 м/с2 %
    03:00Ясно и безоблачно+16°C71 %756 мм3.3 м/с2 %
    06:00Ясно и безоблачно+15°C71 %756 мм2.8 м/с2 %
    09:00Ясно и безоблачно+20°C50 %757 мм4.8 м/с2 %
    12:00Ясно и безоблачно+22°C58 %757 мм4.5 м/с2 %
    15:00Ясно и безоблачно+24°C47 %757 мм3.8 м/с2 %
    18:00Ясно и безоблачно+23°C47 %756 мм3.8 м/с2 %
    21:00Ясно и безоблачно+20°C49 %757 мм1.5 м/с2 %
  • 24мая
    Пятница
    +16°
    +26°
    Ясно и безоблачно
    ВремяПогодаТемператураВлажностьДавлениеВетер, м/сВероятность осадков
    00:00Ясно и безоблачно+18°C69 %758 мм1.4 м/с2 %
    03:00Практически безоблачно+16°C73 %758 мм2.8 м/с2 %
    06:00Ясно и безоблачно+16°C63 %758 мм3.8 м/с2 %
    09:00Ясно и безоблачно+21°C55 %759 мм4.7 м/с2 %
    12:00Ясно и безоблачно+25°C45 %760 мм5.2 м/с2 %
    15:00Ясно и безоблачно+26°C39 %760 мм6.0 м/с2 %
    18:00Практически безоблачно+23°C50 %759 мм3.4 м/с2 %
    21:00Ясно и безоблачно+19°C65 %761 мм1.7 м/с2 %
  • 25мая
    Суббота
    +14°
    +24°
    Ясно и безоблачно
    ВремяПогодаТемператураВлажностьДавлениеВетер, м/сВероятность осадков
    00:00Ясно и безоблачно+19°C63 %761 мм3.8 м/с2 %
    03:00Ясно и безоблачно+18°C66 %761 мм4.0 м/с2 %
    06:00Ясно и безоблачно+17°C66 %762 мм5.1 м/с2 %
    09:00Ясно и безоблачно+20°C44 %762 мм6.7 м/с2 %
    12:00Ясно и безоблачно+22°C44 %762 мм4.6 м/с2 %
    15:00Ясно и безоблачно+23°C42 %761 мм4.1 м/с2 %
    18:00Ясно и безоблачно+23°C48 %760 мм4.4 м/с2 %
    21:00Ясно и безоблачно+19°C54 %761 мм0.8 м/с2 %
  • 26мая
    Воскресенье
    +14°
    +23°
    Ясно и безоблачно
    ВремяПогодаТемператураВлажностьДавлениеВетер, м/сВероятность осадков
    00:00Ясно и безоблачно+17°C70 %761 мм1.9 м/с2 %
    03:00Ясно и безоблачно+15°C79 %761 мм2.4 м/с2 %
    06:00Ясно и безоблачно+15°C68 %760 мм2.8 м/с2 %
    09:00Ясно и безоблачно+20°C47 %761 мм3.4 м/с2 %
    12:00Ясно и безоблачно+22°C47 %760 мм2.8 м/с2 %
    15:00Ясно и безоблачно+23°C43 %759 мм1.9 м/с2 %
    18:00Ясно и безоблачно+23°C40 %759 мм1.5 м/с2 %
    21:00Ясно и безоблачно+18°C51 %759 мм3.6 м/с4 %
Мы используем cookies
Соглашаюсь